sensor_id;sensor_type;location;lat;lon;timestamp;P1;durP1;ratioP1;P2;durP2;ratioP2
64643;SDS011;51056;50.330;7.914;2022-11-14T00:03:12;8.40;;;4.32;;
64643;SDS011;51056;50.330;7.914;2022-11-14T00:06:35;12.98;;;4.50;;
64643;SDS011;51056;50.330;7.914;2022-11-14T00:09:57;5.38;;;3.85;;
64643;SDS011;51056;50.330;7.914;2022-11-14T00:13:19;12.30;;;4.07;;
64643;SDS011;51056;50.330;7.914;2022-11-14T00:16:41;10.70;;;4.88;;
64643;SDS011;51056;50.330;7.914;2022-11-14T00:20:04;8.50;;;4.45;;
64643;SDS011;51056;50.330;7.914;2022-11-14T00:23:27;8.85;;;4.18;;
64643;SDS011;51056;50.330;7.914;2022-11-14T00:26:49;8.77;;;4.65;;
64643;SDS011;51056;50.330;7.914;2022-11-14T00:30:12;22.42;;;11.93;;
64643;SDS011;51056;50.330;7.914;2022-11-14T00:33:34;24.38;;;12.60;;
64643;SDS011;51056;50.330;7.914;2022-11-14T00:36:55;13.95;;;8.68;;
64643;SDS011;51056;50.330;7.914;2022-11-14T00:40:18;22.50;;;13.93;;
64643;SDS011;51056;50.330;7.914;2022-11-14T00:43:39;13.93;;;7.03;;
64643;SDS011;51056;50.330;7.914;2022-11-14T00:47:01;8.88;;;6.13;;
64643;SDS011;51056;50.330;7.914;2022-11-14T00:50:24;6.28;;;3.83;;
64643;SDS011;51056;50.330;7.914;2022-11-14T00:53:45;26.33;;;14.43;;
64643;SDS011;51056;50.330;7.914;2022-11-14T00:57:07;9.43;;;7.22;;
64643;SDS011;51056;50.330;7.914;2022-11-14T01:00:29;7.07;;;5.50;;
64643;SDS011;51056;50.330;7.914;2022-11-14T01:03:51;8.88;;;6.72;;
64643;SDS011;51056;50.330;7.914;2022-11-14T01:07:13;10.68;;;8.45;;
64643;SDS011;51056;50.330;7.914;2022-11-14T01:10:42;11.70;;;7.53;;
64643;SDS011;51056;50.330;7.914;2022-11-14T01:14:06;9.18;;;6.10;;
64643;SDS011;51056;50.330;7.914;2022-11-14T01:17:29;8.50;;;6.40;;
64643;SDS011;51056;50.330;7.914;2022-11-14T01:20:51;7.53;;;4.47;;
64643;SDS011;51056;50.330;7.914;2022-11-14T01:24:13;23.02;;;4.40;;
64643;SDS011;51056;50.330;7.914;2022-11-14T01:27:35;5.55;;;4.07;;
64643;SDS011;51056;50.330;7.914;2022-11-14T01:31:06;5.30;;;3.60;;
64643;SDS011;51056;50.330;7.914;2022-11-14T01:34:36;5.63;;;3.50;;
64643;SDS011;51056;50.330;7.914;2022-11-14T01:38:01;11.18;;;4.15;;
64643;SDS011;51056;50.330;7.914;2022-11-14T01:41:24;7.30;;;4.18;;
64643;SDS011;51056;50.330;7.914;2022-11-14T01:44:50;10.13;;;3.53;;
64643;SDS011;51056;50.330;7.914;2022-11-14T01:48:34;7.57;;;3.92;;
64643;SDS011;51056;50.330;7.914;2022-11-14T01:52:08;16.65;;;3.83;;
64643;SDS011;51056;50.330;7.914;2022-11-14T01:55:34;8.65;;;3.60;;
64643;SDS011;51056;50.330;7.914;2022-11-14T01:59:00;6.40;;;3.78;;
64643;SDS011;51056;50.330;7.914;2022-11-14T02:02:26;6.57;;;4.20;;
64643;SDS011;51056;50.330;7.914;2022-11-14T02:05:47;6.00;;;4.20;;
64643;SDS011;51056;50.330;7.914;2022-11-14T02:09:11;5.85;;;3.95;;
64643;SDS011;51056;50.330;7.914;2022-11-14T02:12:33;5.68;;;3.72;;
64643;SDS011;51056;50.330;7.914;2022-11-14T02:20:52;4.30;;;3.10;;
64643;SDS011;51056;50.330;7.914;2022-11-14T02:24:14;9.70;;;3.95;;
64643;SDS011;51056;50.330;7.914;2022-11-14T02:27:36;6.35;;;3.72;;
64643;SDS011;51056;50.330;7.914;2022-11-14T02:30:59;5.55;;;3.47;;
64643;SDS011;51056;50.330;7.914;2022-11-14T02:34:21;6.65;;;4.60;;
64643;SDS011;51056;50.330;7.914;2022-11-14T02:37:43;8.93;;;3.95;;
64643;SDS011;51056;50.330;7.914;2022-11-14T02:41:04;6.95;;;4.85;;
64643;SDS011;51056;50.330;7.914;2022-11-14T02:44:26;6.90;;;3.97;;
64643;SDS011;51056;50.330;7.914;2022-11-14T02:47:48;4.78;;;3.25;;
64643;SDS011;51056;50.330;7.914;2022-11-14T02:51:11;5.05;;;3.17;;
64643;SDS011;51056;50.330;7.914;2022-11-14T02:54:32;9.77;;;2.90;;
64643;SDS011;51056;50.330;7.914;2022-11-14T02:57:54;9.77;;;3.25;;
64643;SDS011;51056;50.330;7.914;2022-11-14T03:01:16;12.40;;;3.70;;
64643;SDS011;51056;50.330;7.914;2022-11-14T03:04:38;5.32;;;3.33;;
64643;SDS011;51056;50.330;7.914;2022-11-14T03:08:00;10.30;;;3.58;;
64643;SDS011;51056;50.330;7.914;2022-11-14T03:11:22;11.65;;;3.08;;
64643;SDS011;51056;50.330;7.914;2022-11-14T03:14:43;8.75;;;3.30;;
64643;SDS011;51056;50.330;7.914;2022-11-14T03:18:05;4.88;;;3.63;;
64643;SDS011;51056;50.330;7.914;2022-11-14T03:21:27;5.97;;;3.80;;
64643;SDS011;51056;50.330;7.914;2022-11-14T03:24:49;10.63;;;3.15;;
64643;SDS011;51056;50.330;7.914;2022-11-14T03:28:10;15.40;;;3.20;;
64643;SDS011;51056;50.330;7.914;2022-11-14T03:31:32;4.63;;;3.10;;
64643;SDS011;51056;50.330;7.914;2022-11-14T03:34:54;6.82;;;2.70;;
64643;SDS011;51056;50.330;7.914;2022-11-14T03:38:16;6.15;;;3.63;;
64643;SDS011;51056;50.330;7.914;2022-11-14T03:41:38;4.40;;;3.13;;
64643;SDS011;51056;50.330;7.914;2022-11-14T03:45:00;5.57;;;3.30;;
64643;SDS011;51056;50.330;7.914;2022-11-14T03:48:23;4.07;;;2.88;;
64643;SDS011;51056;50.330;7.914;2022-11-14T03:51:45;6.95;;;3.10;;
64643;SDS011;51056;50.330;7.914;2022-11-14T03:55:07;11.30;;;3.75;;
64643;SDS011;51056;50.330;7.914;2022-11-14T03:58:29;7.07;;;3.30;;
64643;SDS011;51056;50.330;7.914;2022-11-14T04:01:50;5.00;;;3.10;;
64643;SDS011;51056;50.330;7.914;2022-11-14T04:05:12;4.78;;;3.33;;
64643;SDS011;51056;50.330;7.914;2022-11-14T04:08:34;6.93;;;3.30;;
64643;SDS011;51056;50.330;7.914;2022-11-14T04:11:56;4.88;;;3.10;;
64643;SDS011;51056;50.330;7.914;2022-11-14T04:15:18;6.00;;;2.97;;
64643;SDS011;51056;50.330;7.914;2022-11-14T04:18:40;4.25;;;2.80;;
64643;SDS011;51056;50.330;7.914;2022-11-14T04:22:02;4.50;;;3.00;;
64643;SDS011;51056;50.330;7.914;2022-11-14T04:25:24;3.95;;;2.97;;
64643;SDS011;51056;50.330;7.914;2022-11-14T04:28:46;4.40;;;2.92;;
64643;SDS011;51056;50.330;7.914;2022-11-14T04:32:08;7.00;;;3.13;;
64643;SDS011;51056;50.330;7.914;2022-11-14T04:35:30;6.10;;;2.95;;
64643;SDS011;51056;50.330;7.914;2022-11-14T04:38:53;4.85;;;3.08;;
64643;SDS011;51056;50.330;7.914;2022-11-14T04:42:14;5.13;;;3.10;;
64643;SDS011;51056;50.330;7.914;2022-11-14T04:45:37;6.43;;;3.38;;
64643;SDS011;51056;50.330;7.914;2022-11-14T04:48:58;4.85;;;3.50;;
64643;SDS011;51056;50.330;7.914;2022-11-14T04:52:20;5.00;;;3.33;;
64643;SDS011;51056;50.330;7.914;2022-11-14T04:55:42;5.68;;;3.92;;
64643;SDS011;51056;50.330;7.914;2022-11-14T04:59:05;5.95;;;4.47;;
64643;SDS011;51056;50.330;7.914;2022-11-14T05:02:29;4.85;;;3.55;;
64643;SDS011;51056;50.330;7.914;2022-11-14T05:05:52;7.50;;;3.95;;
64643;SDS011;51056;50.330;7.914;2022-11-14T05:09:13;7.13;;;4.63;;
64643;SDS011;51056;50.330;7.914;2022-11-14T05:12:35;6.72;;;4.28;;
64643;SDS011;51056;50.330;7.914;2022-11-14T05:15:57;4.93;;;3.17;;
64643;SDS011;51056;50.330;7.914;2022-11-14T05:19:20;6.63;;;4.05;;
64643;SDS011;51056;50.330;7.914;2022-11-14T05:22:42;7.70;;;3.58;;
64643;SDS011;51056;50.330;7.914;2022-11-14T05:26:06;7.50;;;3.63;;
64643;SDS011;51056;50.330;7.914;2022-11-14T05:29:30;4.82;;;2.92;;
64643;SDS011;51056;50.330;7.914;2022-11-14T05:32:52;5.85;;;3.00;;
64643;SDS011;51056;50.330;7.914;2022-11-14T05:36:14;5.47;;;3.17;;
64643;SDS011;51056;50.330;7.914;2022-11-14T05:39:37;4.43;;;3.47;;
64643;SDS011;51056;50.330;7.914;2022-11-14T05:42:59;5.68;;;3.17;;
64643;SDS011;51056;50.330;7.914;2022-11-14T05:46:23;6.38;;;2.90;;
64643;SDS011;51056;50.330;7.914;2022-11-14T05:49:45;8.27;;;3.65;;
64643;SDS011;51056;50.330;7.914;2022-11-14T05:53:07;6.43;;;3.55;;
64643;SDS011;51056;50.330;7.914;2022-11-14T05:56:29;5.20;;;3.88;;
64643;SDS011;51056;50.330;7.914;2022-11-14T05:59:50;5.65;;;3.17;;
64643;SDS011;51056;50.330;7.914;2022-11-14T06:03:12;6.68;;;3.20;;
64643;SDS011;51056;50.330;7.914;2022-11-14T06:06:35;5.28;;;2.92;;
64643;SDS011;51056;50.330;7.914;2022-11-14T06:09:57;5.55;;;3.35;;
64643;SDS011;51056;50.330;7.914;2022-11-14T06:13:18;7.57;;;3.72;;
64643;SDS011;51056;50.330;7.914;2022-11-14T06:16:41;6.45;;;3.50;;
64643;SDS011;51056;50.330;7.914;2022-11-14T06:20:04;5.47;;;2.85;;
64643;SDS011;51056;50.330;7.914;2022-11-14T06:23:27;5.23;;;3.70;;
64643;SDS011;51056;50.330;7.914;2022-11-14T06:26:49;6.18;;;3.95;;
64643;SDS011;51056;50.330;7.914;2022-11-14T06:30:12;11.40;;;6.18;;
64643;SDS011;51056;50.330;7.914;2022-11-14T06:33:35;8.18;;;5.47;;
64643;SDS011;51056;50.330;7.914;2022-11-14T06:36:58;6.80;;;5.07;;
64643;SDS011;51056;50.330;7.914;2022-11-14T06:40:19;5.53;;;3.88;;
64643;SDS011;51056;50.330;7.914;2022-11-14T06:43:42;8.98;;;3.80;;
64643;SDS011;51056;50.330;7.914;2022-11-14T06:47:06;9.55;;;3.13;;
64643;SDS011;51056;50.330;7.914;2022-11-14T06:50:27;9.65;;;4.30;;
64643;SDS011;51056;50.330;7.914;2022-11-14T06:53:49;8.07;;;5.10;;
64643;SDS011;51056;50.330;7.914;2022-11-14T06:57:11;11.70;;;6.55;;
64643;SDS011;51056;50.330;7.914;2022-11-14T07:00:33;13.20;;;7.07;;
64643;SDS011;51056;50.330;7.914;2022-11-14T07:03:55;12.98;;;7.72;;
64643;SDS011;51056;50.330;7.914;2022-11-14T07:07:21;6.28;;;4.40;;
64643;SDS011;51056;50.330;7.914;2022-11-14T07:10:43;9.88;;;3.75;;
64643;SDS011;51056;50.330;7.914;2022-11-14T07:14:05;7.38;;;3.70;;
64643;SDS011;51056;50.330;7.914;2022-11-14T07:17:27;5.25;;;3.45;;
64643;SDS011;51056;50.330;7.914;2022-11-14T07:20:49;4.32;;;3.03;;
64643;SDS011;51056;50.330;7.914;2022-11-14T07:24:17;5.20;;;3.38;;
64643;SDS011;51056;50.330;7.914;2022-11-14T07:27:39;5.25;;;3.40;;
64643;SDS011;51056;50.330;7.914;2022-11-14T07:31:04;5.47;;;3.33;;
64643;SDS011;51056;50.330;7.914;2022-11-14T07:34:27;4.45;;;3.22;;
64643;SDS011;51056;50.330;7.914;2022-11-14T07:37:49;10.30;;;3.58;;
64643;SDS011;51056;50.330;7.914;2022-11-14T07:41:24;4.20;;;3.00;;
64643;SDS011;51056;50.330;7.914;2022-11-14T07:44:46;6.22;;;4.10;;
64643;SDS011;51056;50.330;7.914;2022-11-14T07:48:08;4.43;;;3.42;;
64643;SDS011;51056;50.330;7.914;2022-11-14T07:51:31;4.63;;;3.30;;
64643;SDS011;51056;50.330;7.914;2022-11-14T07:54:53;5.20;;;3.38;;
64643;SDS011;51056;50.330;7.914;2022-11-14T07:58:15;4.50;;;3.42;;
64643;SDS011;51056;50.330;7.914;2022-11-14T08:01:37;4.60;;;3.30;;
64643;SDS011;51056;50.330;7.914;2022-11-14T08:04:58;5.68;;;3.95;;
64643;SDS011;51056;50.330;7.914;2022-11-14T08:08:21;4.70;;;3.45;;
64643;SDS011;51056;50.330;7.914;2022-11-14T08:11:43;5.72;;;3.45;;
64643;SDS011;51056;50.330;7.914;2022-11-14T08:15:11;6.53;;;3.97;;
64643;SDS011;51056;50.330;7.914;2022-11-14T08:19:07;5.97;;;3.28;;
64643;SDS011;51056;50.330;7.914;2022-11-14T08:22:28;4.82;;;3.38;;
64643;SDS011;51056;50.330;7.914;2022-11-14T08:25:51;6.43;;;3.38;;
64643;SDS011;51056;50.330;7.914;2022-11-14T08:29:13;14.93;;;10.05;;
64643;SDS011;51056;50.330;7.914;2022-11-14T08:32:35;6.00;;;4.57;;
64643;SDS011;51056;50.330;7.914;2022-11-14T08:36:03;6.03;;;3.83;;
64643;SDS011;51056;50.330;7.914;2022-11-14T08:39:26;6.22;;;4.13;;
64643;SDS011;51056;50.330;7.914;2022-11-14T08:42:48;7.68;;;4.00;;
64643;SDS011;51056;50.330;7.914;2022-11-14T08:46:10;7.50;;;4.05;;
64643;SDS011;51056;50.330;7.914;2022-11-14T08:49:31;7.20;;;4.60;;
64643;SDS011;51056;50.330;7.914;2022-11-14T08:52:53;4.70;;;3.17;;
64643;SDS011;51056;50.330;7.914;2022-11-14T08:56:15;6.18;;;3.58;;
64643;SDS011;51056;50.330;7.914;2022-11-14T08:59:37;5.80;;;3.75;;
64643;SDS011;51056;50.330;7.914;2022-11-14T09:03:00;6.10;;;3.90;;
64643;SDS011;51056;50.330;7.914;2022-11-14T09:06:59;8.38;;;4.25;;
64643;SDS011;51056;50.330;7.914;2022-11-14T09:10:21;6.03;;;4.63;;
64643;SDS011;51056;50.330;7.914;2022-11-14T09:13:43;6.40;;;3.97;;
64643;SDS011;51056;50.330;7.914;2022-11-14T09:17:04;6.50;;;4.25;;
64643;SDS011;51056;50.330;7.914;2022-11-14T09:20:26;5.95;;;4.30;;
64643;SDS011;51056;50.330;7.914;2022-11-14T09:29:18;6.38;;;4.35;;
64643;SDS011;51056;50.330;7.914;2022-11-14T09:42:55;7.97;;;4.60;;
64643;SDS011;51056;50.330;7.914;2022-11-14T09:46:58;8.90;;;6.43;;
64643;SDS011;51056;50.330;7.914;2022-11-14T09:50:23;10.27;;;6.07;;
64643;SDS011;51056;50.330;7.914;2022-11-14T09:57:15;11.55;;;8.70;;
64643;SDS011;51056;50.330;7.914;2022-11-14T10:00:48;13.60;;;8.80;;
64643;SDS011;51056;50.330;7.914;2022-11-14T10:12:03;20.15;;;15.18;;
64643;SDS011;51056;50.330;7.914;2022-11-14T10:37:25;15.82;;;11.40;;
64643;SDS011;51056;50.330;7.914;2022-11-14T10:41:03;16.98;;;11.73;;
64643;SDS011;51056;50.330;7.914;2022-11-14T10:44:38;20.85;;;14.25;;
64643;SDS011;51056;50.330;7.914;2022-11-14T10:48:11;20.08;;;14.13;;
64643;SDS011;51056;50.330;7.914;2022-11-14T10:52:31;21.55;;;13.88;;
64643;SDS011;51056;50.330;7.914;2022-11-14T10:55:40;18.80;;;15.07;;
64643;SDS011;51056;50.330;7.914;2022-11-14T10:59:03;21.85;;;15.88;;
64643;SDS011;51056;50.330;7.914;2022-11-14T11:02:25;21.02;;;15.65;;
64643;SDS011;51056;50.330;7.914;2022-11-14T11:06:08;22.35;;;16.08;;
64643;SDS011;51056;50.330;7.914;2022-11-14T11:09:46;24.63;;;15.35;;
64643;SDS011;51056;50.330;7.914;2022-11-14T11:13:39;19.92;;;14.23;;
64643;SDS011;51056;50.330;7.914;2022-11-14T11:17:30;22.27;;;15.75;;
64643;SDS011;51056;50.330;7.914;2022-11-14T11:21:14;21.25;;;15.18;;
64643;SDS011;51056;50.330;7.914;2022-11-14T11:25:38;22.88;;;16.73;;
64643;SDS011;51056;50.330;7.914;2022-11-14T11:32:32;23.45;;;18.05;;
64643;SDS011;51056;50.330;7.914;2022-11-14T11:36:04;31.20;;;21.38;;
64643;SDS011;51056;50.330;7.914;2022-11-14T11:39:37;27.58;;;21.17;;
64643;SDS011;51056;50.330;7.914;2022-11-14T11:43:10;22.70;;;18.67;;
64643;SDS011;51056;50.330;7.914;2022-11-14T11:46:46;24.25;;;17.45;;
64643;SDS011;51056;50.330;7.914;2022-11-14T11:50:15;23.27;;;17.90;;
64643;SDS011;51056;50.330;7.914;2022-11-14T11:53:46;23.25;;;17.45;;
64643;SDS011;51056;50.330;7.914;2022-11-14T11:57:18;22.13;;;16.88;;
64643;SDS011;51056;50.330;7.914;2022-11-14T12:00:45;22.95;;;18.05;;
64643;SDS011;51056;50.330;7.914;2022-11-14T12:04:07;38.15;;;27.75;;
64643;SDS011;51056;50.330;7.914;2022-11-14T12:10:58;35.25;;;26.73;;
64643;SDS011;51056;50.330;7.914;2022-11-14T12:14:42;21.92;;;17.13;;
64643;SDS011;51056;50.330;7.914;2022-11-14T12:33:45;15.90;;;13.55;;
64643;SDS011;51056;50.330;7.914;2022-11-14T12:37:32;16.90;;;12.73;;
64643;SDS011;51056;50.330;7.914;2022-11-14T12:41:05;16.73;;;12.68;;
64643;SDS011;51056;50.330;7.914;2022-11-14T12:51:49;15.45;;;12.02;;
64643;SDS011;51056;50.330;7.914;2022-11-14T13:13:56;15.23;;;12.45;;
64643;SDS011;51056;50.330;7.914;2022-11-14T13:17:43;17.88;;;12.38;;
64643;SDS011;51056;50.330;7.914;2022-11-14T13:21:25;16.42;;;14.13;;
64643;SDS011;51056;50.330;7.914;2022-11-14T13:28:54;14.95;;;12.25;;
64643;SDS011;51056;50.330;7.914;2022-11-14T13:36:02;15.70;;;12.68;;
64643;SDS011;51056;50.330;7.914;2022-11-14T13:39:32;15.30;;;12.38;;
64643;SDS011;51056;50.330;7.914;2022-11-14T13:43:01;15.50;;;11.45;;
64643;SDS011;51056;50.330;7.914;2022-11-14T13:50:31;14.20;;;11.30;;
64643;SDS011;51056;50.330;7.914;2022-11-14T13:53:57;15.30;;;11.10;;
64643;SDS011;51056;50.330;7.914;2022-11-14T13:57:24;19.27;;;14.07;;
64643;SDS011;51056;50.330;7.914;2022-11-14T14:00:56;28.25;;;16.98;;
64643;SDS011;51056;50.330;7.914;2022-11-14T14:04:45;28.88;;;19.77;;
64643;SDS011;51056;50.330;7.914;2022-11-14T14:12:23;22.38;;;18.45;;
64643;SDS011;51056;50.330;7.914;2022-11-14T14:23:16;26.48;;;18.48;;
64643;SDS011;51056;50.330;7.914;2022-11-14T14:30:29;23.15;;;16.52;;
64643;SDS011;51056;50.330;7.914;2022-11-14T14:33:51;22.08;;;15.23;;
64643;SDS011;51056;50.330;7.914;2022-11-14T14:37:23;20.42;;;14.57;;
64643;SDS011;51056;50.330;7.914;2022-11-14T14:40:46;22.75;;;12.63;;
64643;SDS011;51056;50.330;7.914;2022-11-14T14:44:16;17.35;;;13.02;;
64643;SDS011;51056;50.330;7.914;2022-11-14T14:47:43;17.85;;;12.40;;
64643;SDS011;51056;50.330;7.914;2022-11-14T14:51:11;18.70;;;11.88;;
64643;SDS011;51056;50.330;7.914;2022-11-14T14:54:34;14.30;;;10.57;;
64643;SDS011;51056;50.330;7.914;2022-11-14T14:58:11;13.43;;;10.02;;
64643;SDS011;51056;50.330;7.914;2022-11-14T15:01:34;14.80;;;10.18;;
64643;SDS011;51056;50.330;7.914;2022-11-14T15:04:56;10.43;;;8.38;;
64643;SDS011;51056;50.330;7.914;2022-11-14T15:08:20;13.80;;;8.80;;
64643;SDS011;51056;50.330;7.914;2022-11-14T15:11:45;11.30;;;8.95;;
64643;SDS011;51056;50.330;7.914;2022-11-14T15:15:11;10.05;;;7.63;;
64643;SDS011;51056;50.330;7.914;2022-11-14T15:18:35;11.82;;;8.80;;
64643;SDS011;51056;50.330;7.914;2022-11-14T15:25:35;10.75;;;8.85;;
64643;SDS011;51056;50.330;7.914;2022-11-14T15:29:31;28.00;;;19.05;;
64643;SDS011;51056;50.330;7.914;2022-11-14T15:32:48;19.48;;;12.85;;
64643;SDS011;51056;50.330;7.914;2022-11-14T15:36:15;23.05;;;14.50;;
64643;SDS011;51056;50.330;7.914;2022-11-14T15:39:38;21.00;;;14.32;;
64643;SDS011;51056;50.330;7.914;2022-11-14T15:43:33;28.60;;;17.25;;
64643;SDS011;51056;50.330;7.914;2022-11-14T15:47:33;27.27;;;15.60;;
64643;SDS011;51056;50.330;7.914;2022-11-14T15:51:00;26.67;;;17.23;;
64643;SDS011;51056;50.330;7.914;2022-11-14T15:57:49;22.95;;;17.45;;
64643;SDS011;51056;50.330;7.914;2022-11-14T16:01:17;23.48;;;16.48;;
64643;SDS011;51056;50.330;7.914;2022-11-14T16:04:51;18.35;;;12.27;;
64643;SDS011;51056;50.330;7.914;2022-11-14T16:08:15;21.73;;;14.13;;
64643;SDS011;51056;50.330;7.914;2022-11-14T16:11:37;32.75;;;19.70;;
64643;SDS011;51056;50.330;7.914;2022-11-14T16:15:00;41.53;;;24.63;;
64643;SDS011;51056;50.330;7.914;2022-11-14T16:18:22;28.73;;;19.55;;
64643;SDS011;51056;50.330;7.914;2022-11-14T16:21:45;27.55;;;18.40;;
64643;SDS011;51056;50.330;7.914;2022-11-14T16:25:17;18.00;;;12.55;;
64643;SDS011;51056;50.330;7.914;2022-11-14T16:32:03;18.45;;;13.43;;
64643;SDS011;51056;50.330;7.914;2022-11-14T16:35:26;23.20;;;14.77;;
64643;SDS011;51056;50.330;7.914;2022-11-14T16:38:48;20.35;;;14.30;;
64643;SDS011;51056;50.330;7.914;2022-11-14T16:42:11;18.95;;;14.00;;
64643;SDS011;51056;50.330;7.914;2022-11-14T16:45:33;17.67;;;13.25;;
64643;SDS011;51056;50.330;7.914;2022-11-14T16:49:00;21.20;;;14.30;;
64643;SDS011;51056;50.330;7.914;2022-11-14T16:52:23;17.67;;;13.15;;
64643;SDS011;51056;50.330;7.914;2022-11-14T16:55:45;14.02;;;10.57;;
64643;SDS011;51056;50.330;7.914;2022-11-14T16:59:08;16.73;;;11.02;;
64643;SDS011;51056;50.330;7.914;2022-11-14T17:02:30;12.65;;;10.55;;
64643;SDS011;51056;50.330;7.914;2022-11-14T17:05:52;12.10;;;8.65;;
64643;SDS011;51056;50.330;7.914;2022-11-14T17:09:14;11.38;;;8.63;;
64643;SDS011;51056;50.330;7.914;2022-11-14T17:12:37;12.70;;;9.30;;
64643;SDS011;51056;50.330;7.914;2022-11-14T17:16:00;11.65;;;8.27;;
64643;SDS011;51056;50.330;7.914;2022-11-14T17:19:23;12.95;;;8.93;;
64643;SDS011;51056;50.330;7.914;2022-11-14T17:22:45;16.23;;;10.68;;
64643;SDS011;51056;50.330;7.914;2022-11-14T17:26:08;11.10;;;8.82;;
64643;SDS011;51056;50.330;7.914;2022-11-14T17:29:32;13.85;;;10.60;;
64643;SDS011;51056;50.330;7.914;2022-11-14T17:32:55;11.15;;;9.70;;
64643;SDS011;51056;50.330;7.914;2022-11-14T17:36:17;8.68;;;7.78;;
64643;SDS011;51056;50.330;7.914;2022-11-14T17:39:40;12.52;;;7.75;;
64643;SDS011;51056;50.330;7.914;2022-11-14T17:43:05;9.93;;;7.03;;
64643;SDS011;51056;50.330;7.914;2022-11-14T17:46:28;11.10;;;7.05;;
64643;SDS011;51056;50.330;7.914;2022-11-14T17:50:02;9.25;;;6.45;;
64643;SDS011;51056;50.330;7.914;2022-11-14T17:53:49;9.23;;;6.72;;
64643;SDS011;51056;50.330;7.914;2022-11-14T17:57:17;11.10;;;7.63;;
64643;SDS011;51056;50.330;7.914;2022-11-14T18:01:19;9.20;;;7.75;;
64643;SDS011;51056;50.330;7.914;2022-11-14T18:04:56;14.38;;;10.25;;
64643;SDS011;51056;50.330;7.914;2022-11-14T18:08:21;18.88;;;13.68;;
64643;SDS011;51056;50.330;7.914;2022-11-14T18:11:54;16.60;;;12.77;;
64643;SDS011;51056;50.330;7.914;2022-11-14T18:15:16;16.05;;;11.32;;
64643;SDS011;51056;50.330;7.914;2022-11-14T18:18:41;77.22;;;53.13;;
64643;SDS011;51056;50.330;7.914;2022-11-14T18:22:13;62.17;;;45.42;;
64643;SDS011;51056;50.330;7.914;2022-11-14T18:25:42;41.00;;;26.27;;
64643;SDS011;51056;50.330;7.914;2022-11-14T18:29:05;35.88;;;25.65;;
64643;SDS011;51056;50.330;7.914;2022-11-14T18:32:27;21.05;;;14.98;;
64643;SDS011;51056;50.330;7.914;2022-11-14T18:35:56;20.92;;;12.15;;
64643;SDS011;51056;50.330;7.914;2022-11-14T18:39:19;29.08;;;18.13;;
64643;SDS011;51056;50.330;7.914;2022-11-14T18:42:42;27.55;;;17.25;;
64643;SDS011;51056;50.330;7.914;2022-11-14T18:46:09;33.35;;;19.38;;
64643;SDS011;51056;50.330;7.914;2022-11-14T18:49:33;24.25;;;16.80;;
64643;SDS011;51056;50.330;7.914;2022-11-14T18:52:55;18.60;;;11.82;;
64643;SDS011;51056;50.330;7.914;2022-11-14T18:56:27;20.45;;;13.75;;
64643;SDS011;51056;50.330;7.914;2022-11-14T18:59:49;20.60;;;12.13;;
64643;SDS011;51056;50.330;7.914;2022-11-14T19:03:18;16.67;;;10.85;;
64643;SDS011;51056;50.330;7.914;2022-11-14T19:06:41;19.90;;;12.35;;
64643;SDS011;51056;50.330;7.914;2022-11-14T19:10:05;21.65;;;14.98;;
64643;SDS011;51056;50.330;7.914;2022-11-14T19:13:27;15.35;;;11.48;;
64643;SDS011;51056;50.330;7.914;2022-11-14T19:16:49;18.17;;;11.50;;
64643;SDS011;51056;50.330;7.914;2022-11-14T19:20:12;20.35;;;13.13;;
64643;SDS011;51056;50.330;7.914;2022-11-14T19:23:33;20.35;;;13.63;;
64643;SDS011;51056;50.330;7.914;2022-11-14T19:26:55;22.80;;;14.95;;
64643;SDS011;51056;50.330;7.914;2022-11-14T19:30:17;16.55;;;8.90;;
64643;SDS011;51056;50.330;7.914;2022-11-14T19:33:39;16.90;;;12.10;;
64643;SDS011;51056;50.330;7.914;2022-11-14T19:37:02;14.52;;;9.65;;
64643;SDS011;51056;50.330;7.914;2022-11-14T19:40:24;20.27;;;15.00;;
64643;SDS011;51056;50.330;7.914;2022-11-14T19:43:47;25.42;;;17.48;;
64643;SDS011;51056;50.330;7.914;2022-11-14T19:47:09;19.83;;;13.00;;
64643;SDS011;51056;50.330;7.914;2022-11-14T19:50:31;14.32;;;9.40;;
64643;SDS011;51056;50.330;7.914;2022-11-14T19:53:53;12.00;;;7.75;;
64643;SDS011;51056;50.330;7.914;2022-11-14T19:57:17;13.00;;;7.80;;
64643;SDS011;51056;50.330;7.914;2022-11-14T20:00:43;10.77;;;8.07;;
64643;SDS011;51056;50.330;7.914;2022-11-14T20:04:10;13.73;;;8.38;;
64643;SDS011;51056;50.330;7.914;2022-11-14T20:07:33;15.75;;;10.10;;
64643;SDS011;51056;50.330;7.914;2022-11-14T20:11:02;13.32;;;8.55;;
64643;SDS011;51056;50.330;7.914;2022-11-14T20:14:25;13.52;;;10.77;;
64643;SDS011;51056;50.330;7.914;2022-11-14T20:17:49;14.15;;;11.02;;
64643;SDS011;51056;50.330;7.914;2022-11-14T20:21:12;18.27;;;9.65;;
64643;SDS011;51056;50.330;7.914;2022-11-14T20:24:34;12.00;;;9.68;;
64643;SDS011;51056;50.330;7.914;2022-11-14T20:27:56;11.13;;;8.02;;
64643;SDS011;51056;50.330;7.914;2022-11-14T20:31:22;9.32;;;7.57;;
64643;SDS011;51056;50.330;7.914;2022-11-14T20:34:45;20.88;;;9.15;;
64643;SDS011;51056;50.330;7.914;2022-11-14T20:38:07;8.13;;;6.40;;
64643;SDS011;51056;50.330;7.914;2022-11-14T20:41:31;9.25;;;6.13;;
64643;SDS011;51056;50.330;7.914;2022-11-14T20:44:54;8.35;;;5.47;;
64643;SDS011;51056;50.330;7.914;2022-11-14T20:48:16;7.95;;;6.13;;
64643;SDS011;51056;50.330;7.914;2022-11-14T20:51:38;12.88;;;6.45;;
64643;SDS011;51056;50.330;7.914;2022-11-14T20:55:00;10.70;;;6.47;;
64643;SDS011;51056;50.330;7.914;2022-11-14T20:58:22;6.50;;;4.68;;
64643;SDS011;51056;50.330;7.914;2022-11-14T21:01:44;15.00;;;11.07;;
64643;SDS011;51056;50.330;7.914;2022-11-14T21:05:06;28.95;;;22.13;;
64643;SDS011;51056;50.330;7.914;2022-11-14T21:08:30;33.70;;;24.17;;
64643;SDS011;51056;50.330;7.914;2022-11-14T21:12:00;44.45;;;32.60;;
64643;SDS011;51056;50.330;7.914;2022-11-14T21:15:21;25.40;;;17.05;;
64643;SDS011;51056;50.330;7.914;2022-11-14T21:18:43;31.42;;;20.33;;
64643;SDS011;51056;50.330;7.914;2022-11-14T21:22:08;21.55;;;13.80;;
64643;SDS011;51056;50.330;7.914;2022-11-14T21:25:30;26.75;;;18.60;;
64643;SDS011;51056;50.330;7.914;2022-11-14T21:28:53;22.60;;;15.23;;
64643;SDS011;51056;50.330;7.914;2022-11-14T21:32:16;21.30;;;15.13;;
64643;SDS011;51056;50.330;7.914;2022-11-14T21:35:41;22.00;;;15.73;;
64643;SDS011;51056;50.330;7.914;2022-11-14T21:39:03;19.48;;;13.15;;
64643;SDS011;51056;50.330;7.914;2022-11-14T21:42:25;17.77;;;12.85;;
64643;SDS011;51056;50.330;7.914;2022-11-14T21:45:53;18.52;;;13.30;;
64643;SDS011;51056;50.330;7.914;2022-11-14T21:49:16;17.90;;;11.38;;
64643;SDS011;51056;50.330;7.914;2022-11-14T21:52:38;15.15;;;12.70;;
64643;SDS011;51056;50.330;7.914;2022-11-14T21:56:10;14.70;;;8.77;;
64643;SDS011;51056;50.330;7.914;2022-11-14T21:59:34;13.10;;;9.05;;
64643;SDS011;51056;50.330;7.914;2022-11-14T22:03:11;14.13;;;8.65;;
64643;SDS011;51056;50.330;7.914;2022-11-14T22:07:03;11.75;;;8.05;;
64643;SDS011;51056;50.330;7.914;2022-11-14T22:10:32;13.98;;;7.55;;
64643;SDS011;51056;50.330;7.914;2022-11-14T22:13:56;11.95;;;7.68;;
64643;SDS011;51056;50.330;7.914;2022-11-14T22:17:18;11.43;;;7.50;;
64643;SDS011;51056;50.330;7.914;2022-11-14T22:20:41;10.25;;;7.70;;
64643;SDS011;51056;50.330;7.914;2022-11-14T22:24:02;10.15;;;6.15;;
64643;SDS011;51056;50.330;7.914;2022-11-14T22:27:33;11.80;;;6.85;;
64643;SDS011;51056;50.330;7.914;2022-11-14T22:34:30;8.32;;;6.53;;
64643;SDS011;51056;50.330;7.914;2022-11-14T22:37:52;10.55;;;5.60;;
64643;SDS011;51056;50.330;7.914;2022-11-14T22:41:18;17.05;;;6.45;;
64643;SDS011;51056;50.330;7.914;2022-11-14T22:44:48;8.15;;;5.38;;
64643;SDS011;51056;50.330;7.914;2022-11-14T22:48:09;8.75;;;5.75;;